EST,Max TemperatureF,Mean TemperatureF,Min TemperatureF,Max Dew PointF,MeanDew PointF,Min DewpointF,Max Humidity, Mean Humidity, Min Humidity, Max Sea Level PressureIn, Mean Sea Level PressureIn, Min Sea Level PressureIn, Max VisibilityMiles, Mean VisibilityMiles, Min VisibilityMiles, Max Wind SpeedMPH, Mean Wind SpeedMPH, Max Gust SpeedMPH,PrecipitationIn, CloudCover, Events, WindDirDegrees
2012-11-1,55,52,48,41,39,34,69,64,58,29.58,29.56,29.53,10,10,10,17,11,24,0.00,5,,256
2012-11-2,54,49,43,40,37,31,74,63,48,29.66,29.59,29.56,10,10,10,15,6,20,0.00,7,,297
2012-11-3,55,48,42,34,31,28,73,56,40,29.85,29.75,29.67,10,10,10,20,11,26,0.00,3,,310
2012-11-4,54,46,37,31,30,28,76,59,41,29.95,29.90,29.86,10,10,8,15,7,21,0.00,0,,308
2012-11-5,46,38,30,30,23,19,68,52,37,30.16,30.02,29.94,10,10,10,17,10,26,0.00,3,,344
2012-11-6,34,29,24,23,20,18,81,72,59,30.25,30.19,30.12,10,10,9,10,3,,0.00,0,,21
2012-11-7,41,37,33,34,31,28,93,85,65,29.91,29.73,29.60,10,6,2,29,22,45,0.01,8,Rain-Snow,12
2012-11-8,43,38,33,33,31,28,83,74,62,29.79,29.63,29.57,10,9,4,30,24,48,0.01,8,Rain,348
2012-11-9,55,46,37,31,24,19,68,47,24,30.16,29.97,29.79,10,10,9,18,13,30,0.00,0,,321
2012-11-10,57,48,39,41,36,32,86,65,37,30.45,30.30,30.16,9,7,5,9,5,,0.00,2,,291
2012-11-11,61,52,42,51,46,40,100,84,64,30.51,30.48,30.44,10,5,0,12,4,,0.00,2,Fog,202
2012-11-12,63,51,39,59,48,38,100,94,55,30.49,30.45,30.23,8,2,0,17,2,,0.00,5,Fog,175
2012-11-13,61,52,41,61,48,30,100,87,60,30.42,30.24,30.15,10,6,3,18,12,39,0.03,8,Rain,316
2012-11-14,50,40,30,30,26,22,79,57,35,30.50,30.46,30.41,10,10,10,15,10,24,0.00,3,,6
2012-11-15,45,40,34,30,28,23,82,67,56,30.44,30.37,30.29,10,10,10,14,9,,0.00,4,,26
2012-11-16,48,40,33,30,27,23,82,63,39,30.43,30.32,30.28,10,10,8,12,6,,0.00,0,,4
2012-11-17,52,42,30,37,28,23,92,67,40,30.66,30.57,30.43,10,9,6,10,6,,0.00,0,,15
2012-11-18,52,41,30,33,30,28,92,69,43,30.68,30.64,30.60,10,8,4,12,8,,0.00,0,,30
2012-11-19,51,42,32,38,33,28,89,76,59,30.59,30.42,30.26,10,9,7,12,9,,0.00,4,,14
2012-11-20,51,42,33,39,34,31,92,82,54,30.23,30.16,30.11,10,8,5,12,7,,0.00,0,,26
2012-11-21,54,46,37,37,33,27,93,69,47,30.23,30.19,30.15,10,9,6,14,8,,0.00,0,,17
2012-11-22,54,44,33,42,38,32,100,86,62,30.27,30.21,30.14,10,6,2,12,7,,0.00,1,,18
2012-11-23,53,42,32,49,42,32,100,89,71,30.13,29.92,29.66,10,6,2,12,4,,0.00,5,,218
2012-11-24,51,43,35,48,28,15,89,55,30,29.75,29.65,29.59,10,9,7,21,12,31,0.00,6,,298
2012-11-25,42,36,30,24,20,16,67,51,37,29.92,29.84,29.76,10,10,10,15,10,26,0.00,1,,277
2012-11-26,48,38,27,24,22,20,81,53,32,30.27,30.08,29.93,10,9,7,17,9,24,0.00,2,,296
2012-11-27,39,34,28,37,33,23,100,93,73,30.32,30.25,30.18,9,5,2,12,5,,0.03,8,Rain-Snow,13
2012-11-28,42,37,30,34,27,22,100,73,53,30.22,30.17,30.12,10,9,7,16,10,18,0.00,5,,333
2012-11-29,43,36,30,30,25,21,79,60,42,30.32,30.26,30.22,10,9,7,15,8,24,0.00,0,,268
2012-11-30,41,36,30,28,24,18,79,59,45,30.51,30.41,30.28,10,9,6,14,8,,0.00,5,,35